sensor_id;sensor_type;location;lat;lon;timestamp;temperature;humidity
18613;DHT22;9436;52.152;21.032;2022-07-21T00:00:22;21.10;99.90
18613;DHT22;9436;52.152;21.032;2022-07-21T00:02:50;21.00;99.90
18613;DHT22;9436;52.152;21.032;2022-07-21T00:05:17;20.90;99.90
18613;DHT22;9436;52.152;21.032;2022-07-21T00:07:45;20.90;99.90
18613;DHT22;9436;52.152;21.032;2022-07-21T00:10:12;20.90;99.90
18613;DHT22;9436;52.152;21.032;2022-07-21T00:12:40;20.80;99.90
18613;DHT22;9436;52.152;21.032;2022-07-21T00:15:10;20.70;99.90
18613;DHT22;9436;52.152;21.032;2022-07-21T00:17:37;20.70;99.90
18613;DHT22;9436;52.152;21.032;2022-07-21T00:20:06;20.60;99.90
18613;DHT22;9436;52.152;21.032;2022-07-21T00:22:33;20.60;99.90
18613;DHT22;9436;52.152;21.032;2022-07-21T00:25:00;20.60;99.90
18613;DHT22;9436;52.152;21.032;2022-07-21T00:27:28;20.50;99.90
18613;DHT22;9436;52.152;21.032;2022-07-21T00:29:55;20.50;99.90
18613;DHT22;9436;52.152;21.032;2022-07-21T00:32:23;20.40;99.90
18613;DHT22;9436;52.152;21.032;2022-07-21T00:34:50;20.40;99.90
18613;DHT22;9436;52.152;21.032;2022-07-21T00:37:17;20.50;99.90
18613;DHT22;9436;52.152;21.032;2022-07-21T00:39:44;20.50;99.90
18613;DHT22;9436;52.152;21.032;2022-07-21T00:42:20;20.50;99.90
18613;DHT22;9436;52.152;21.032;2022-07-21T00:44:47;20.60;99.90
18613;DHT22;9436;52.152;21.032;2022-07-21T00:47:14;20.60;99.90
18613;DHT22;9436;52.152;21.032;2022-07-21T00:49:42;20.60;99.90
18613;DHT22;9436;52.152;21.032;2022-07-21T00:52:10;20.60;99.90
18613;DHT22;9436;52.152;21.032;2022-07-21T00:54:37;20.60;99.90
18613;DHT22;9436;52.152;21.032;2022-07-21T00:57:05;20.60;99.90
18613;DHT22;9436;52.152;21.032;2022-07-21T00:59:32;20.60;99.90
18613;DHT22;9436;52.152;21.032;2022-07-21T01:01:59;20.50;99.90
18613;DHT22;9436;52.152;21.032;2022-07-21T01:04:26;20.50;99.90
18613;DHT22;9436;52.152;21.032;2022-07-21T01:06:54;20.40;99.90
18613;DHT22;9436;52.152;21.032;2022-07-21T01:09:22;20.40;99.90
18613;DHT22;9436;52.152;21.032;2022-07-21T01:11:50;20.40;99.90
18613;DHT22;9436;52.152;21.032;2022-07-21T01:14:17;20.50;99.90
18613;DHT22;9436;52.152;21.032;2022-07-21T01:16:44;20.40;99.90
18613;DHT22;9436;52.152;21.032;2022-07-21T01:19:12;20.50;99.90
18613;DHT22;9436;52.152;21.032;2022-07-21T01:21:42;20.40;99.90
18613;DHT22;9436;52.152;21.032;2022-07-21T01:24:10;20.50;99.90
18613;DHT22;9436;52.152;21.032;2022-07-21T01:26:41;20.40;99.90
18613;DHT22;9436;52.152;21.032;2022-07-21T01:29:09;20.40;99.90
18613;DHT22;9436;52.152;21.032;2022-07-21T01:31:38;20.40;99.90
18613;DHT22;9436;52.152;21.032;2022-07-21T01:34:05;20.30;99.90
18613;DHT22;9436;52.152;21.032;2022-07-21T01:36:32;20.30;99.90
18613;DHT22;9436;52.152;21.032;2022-07-21T01:39:00;20.30;99.90
18613;DHT22;9436;52.152;21.032;2022-07-21T01:41:47;20.20;99.90
18613;DHT22;9436;52.152;21.032;2022-07-21T01:44:14;20.20;99.90
18613;DHT22;9436;52.152;21.032;2022-07-21T01:46:43;20.20;99.90
18613;DHT22;9436;52.152;21.032;2022-07-21T01:49:12;20.20;99.90
18613;DHT22;9436;52.152;21.032;2022-07-21T01:51:39;20.20;99.90
18613;DHT22;9436;52.152;21.032;2022-07-21T01:54:09;20.20;99.90
18613;DHT22;9436;52.152;21.032;2022-07-21T01:56:37;20.20;99.90
18613;DHT22;9436;52.152;21.032;2022-07-21T01:59:05;20.20;99.90
18613;DHT22;9436;52.152;21.032;2022-07-21T02:01:33;20.10;99.90
18613;DHT22;9436;52.152;21.032;2022-07-21T02:04:02;20.10;99.90
18613;DHT22;9436;52.152;21.032;2022-07-21T02:06:30;20.10;99.90
18613;DHT22;9436;52.152;21.032;2022-07-21T02:08:57;20.10;99.90
18613;DHT22;9436;52.152;21.032;2022-07-21T02:11:25;20.10;99.90
18613;DHT22;9436;52.152;21.032;2022-07-21T02:13:52;20.10;99.90
18613;DHT22;9436;52.152;21.032;2022-07-21T02:16:20;20.10;99.90
18613;DHT22;9436;52.152;21.032;2022-07-21T02:18:47;20.10;99.90
18613;DHT22;9436;52.152;21.032;2022-07-21T02:21:14;20.10;99.90
18613;DHT22;9436;52.152;21.032;2022-07-21T02:23:41;20.10;99.90
18613;DHT22;9436;52.152;21.032;2022-07-21T02:26:08;20.10;99.90
18613;DHT22;9436;52.152;21.032;2022-07-21T02:28:37;20.10;99.90
18613;DHT22;9436;52.152;21.032;2022-07-21T02:31:04;20.10;99.90
18613;DHT22;9436;52.152;21.032;2022-07-21T02:33:31;20.10;99.90
18613;DHT22;9436;52.152;21.032;2022-07-21T02:35:58;20.10;99.90
18613;DHT22;9436;52.152;21.032;2022-07-21T02:38:25;20.20;99.90
18613;DHT22;9436;52.152;21.032;2022-07-21T02:40:52;20.00;99.90
18613;DHT22;9436;52.152;21.032;2022-07-21T02:43:19;20.00;99.90
18613;DHT22;9436;52.152;21.032;2022-07-21T02:45:47;19.90;99.90
18613;DHT22;9436;52.152;21.032;2022-07-21T02:48:14;19.80;99.90
18613;DHT22;9436;52.152;21.032;2022-07-21T02:50:43;19.80;99.90
18613;DHT22;9436;52.152;21.032;2022-07-21T02:53:11;19.70;99.90
18613;DHT22;9436;52.152;21.032;2022-07-21T02:55:39;19.70;99.90
18613;DHT22;9436;52.152;21.032;2022-07-21T02:58:08;19.70;99.90
18613;DHT22;9436;52.152;21.032;2022-07-21T03:00:38;19.70;99.90
18613;DHT22;9436;52.152;21.032;2022-07-21T03:03:08;19.80;99.90
18613;DHT22;9436;52.152;21.032;2022-07-21T03:05:36;19.80;99.90
18613;DHT22;9436;52.152;21.032;2022-07-21T03:08:05;19.80;99.90
18613;DHT22;9436;52.152;21.032;2022-07-21T03:10:33;19.90;99.90
18613;DHT22;9436;52.152;21.032;2022-07-21T03:13:00;19.90;99.90
18613;DHT22;9436;52.152;21.032;2022-07-21T03:15:27;20.00;99.90
18613;DHT22;9436;52.152;21.032;2022-07-21T03:17:55;20.00;99.90
18613;DHT22;9436;52.152;21.032;2022-07-21T03:20:24;20.00;99.90
18613;DHT22;9436;52.152;21.032;2022-07-21T03:22:51;20.00;99.90
18613;DHT22;9436;52.152;21.032;2022-07-21T03:25:18;20.00;99.90
18613;DHT22;9436;52.152;21.032;2022-07-21T03:27:46;19.90;99.90
18613;DHT22;9436;52.152;21.032;2022-07-21T03:30:13;20.00;99.90
18613;DHT22;9436;52.152;21.032;2022-07-21T03:32:41;20.10;99.90
18613;DHT22;9436;52.152;21.032;2022-07-21T03:35:10;20.10;99.90
18613;DHT22;9436;52.152;21.032;2022-07-21T03:37:42;20.10;99.90
18613;DHT22;9436;52.152;21.032;2022-07-21T03:40:11;20.00;99.90
18613;DHT22;9436;52.152;21.032;2022-07-21T03:42:38;20.00;99.90
18613;DHT22;9436;52.152;21.032;2022-07-21T03:45:06;20.00;99.90
18613;DHT22;9436;52.152;21.032;2022-07-21T03:47:33;20.00;99.90
18613;DHT22;9436;52.152;21.032;2022-07-21T03:50:00;20.00;99.90
18613;DHT22;9436;52.152;21.032;2022-07-21T03:52:27;20.10;99.90
18613;DHT22;9436;52.152;21.032;2022-07-21T03:54:55;20.10;99.90
18613;DHT22;9436;52.152;21.032;2022-07-21T03:57:36;20.10;99.90
18613;DHT22;9436;52.152;21.032;2022-07-21T04:00:04;20.10;99.90
18613;DHT22;9436;52.152;21.032;2022-07-21T04:02:32;20.10;99.90
18613;DHT22;9436;52.152;21.032;2022-07-21T04:04:59;20.20;99.90
18613;DHT22;9436;52.152;21.032;2022-07-21T04:07:26;20.20;99.90
18613;DHT22;9436;52.152;21.032;2022-07-21T04:09:55;20.20;99.90
18613;DHT22;9436;52.152;21.032;2022-07-21T04:12:25;20.20;99.90
18613;DHT22;9436;52.152;21.032;2022-07-21T04:14:52;20.30;99.90
18613;DHT22;9436;52.152;21.032;2022-07-21T04:17:19;20.30;99.90
18613;DHT22;9436;52.152;21.032;2022-07-21T04:19:47;20.30;99.90
18613;DHT22;9436;52.152;21.032;2022-07-21T04:22:14;20.40;99.90
18613;DHT22;9436;52.152;21.032;2022-07-21T04:24:41;20.40;99.90
18613;DHT22;9436;52.152;21.032;2022-07-21T04:27:09;20.50;99.90
18613;DHT22;9436;52.152;21.032;2022-07-21T04:29:36;20.50;99.90
18613;DHT22;9436;52.152;21.032;2022-07-21T04:32:04;20.50;99.90
18613;DHT22;9436;52.152;21.032;2022-07-21T04:34:31;20.50;99.90
18613;DHT22;9436;52.152;21.032;2022-07-21T04:36:58;20.60;99.90
18613;DHT22;9436;52.152;21.032;2022-07-21T04:39:25;20.60;99.90
18613;DHT22;9436;52.152;21.032;2022-07-21T04:41:51;20.70;99.90
18613;DHT22;9436;52.152;21.032;2022-07-21T04:44:20;20.80;99.90
18613;DHT22;9436;52.152;21.032;2022-07-21T04:46:47;20.80;99.90
18613;DHT22;9436;52.152;21.032;2022-07-21T04:49:14;20.90;99.90
18613;DHT22;9436;52.152;21.032;2022-07-21T04:51:41;20.90;99.90
18613;DHT22;9436;52.152;21.032;2022-07-21T04:54:08;21.10;99.90
18613;DHT22;9436;52.152;21.032;2022-07-21T04:56:35;21.20;99.90
18613;DHT22;9436;52.152;21.032;2022-07-21T04:59:02;21.30;99.90
18613;DHT22;9436;52.152;21.032;2022-07-21T05:01:31;21.40;99.90
18613;DHT22;9436;52.152;21.032;2022-07-21T05:03:58;21.50;99.90
18613;DHT22;9436;52.152;21.032;2022-07-21T05:06:25;21.60;99.90
18613;DHT22;9436;52.152;21.032;2022-07-21T05:08:52;21.60;99.90
18613;DHT22;9436;52.152;21.032;2022-07-21T05:11:19;21.70;99.90
18613;DHT22;9436;52.152;21.032;2022-07-21T05:13:46;21.80;99.90
18613;DHT22;9436;52.152;21.032;2022-07-21T05:16:12;21.90;99.90
18613;DHT22;9436;52.152;21.032;2022-07-21T05:18:41;22.00;99.90
18613;DHT22;9436;52.152;21.032;2022-07-21T05:21:08;22.10;99.90
18613;DHT22;9436;52.152;21.032;2022-07-21T05:23:35;22.10;99.90
18613;DHT22;9436;52.152;21.032;2022-07-21T05:26:02;22.20;99.90
18613;DHT22;9436;52.152;21.032;2022-07-21T05:28:30;22.20;99.90
18613;DHT22;9436;52.152;21.032;2022-07-21T05:30:57;22.30;99.90
18613;DHT22;9436;52.152;21.032;2022-07-21T05:33:24;22.40;99.90
18613;DHT22;9436;52.152;21.032;2022-07-21T05:35:52;22.50;99.90
18613;DHT22;9436;52.152;21.032;2022-07-21T05:38:19;22.60;99.90
18613;DHT22;9436;52.152;21.032;2022-07-21T05:40:47;22.70;99.90
18613;DHT22;9436;52.152;21.032;2022-07-21T05:43:14;22.70;99.90
18613;DHT22;9436;52.152;21.032;2022-07-21T05:45:41;22.80;99.90
18613;DHT22;9436;52.152;21.032;2022-07-21T05:48:08;22.80;99.90
18613;DHT22;9436;52.152;21.032;2022-07-21T05:50:35;22.90;99.90
18613;DHT22;9436;52.152;21.032;2022-07-21T05:53:03;23.00;99.90
18613;DHT22;9436;52.152;21.032;2022-07-21T05:55:30;23.00;99.90
18613;DHT22;9436;52.152;21.032;2022-07-21T05:57:57;23.10;99.90
18613;DHT22;9436;52.152;21.032;2022-07-21T06:00:24;23.20;99.90
18613;DHT22;9436;52.152;21.032;2022-07-21T06:02:51;23.20;99.90
18613;DHT22;9436;52.152;21.032;2022-07-21T06:05:19;23.40;99.90
18613;DHT22;9436;52.152;21.032;2022-07-21T06:07:45;23.50;99.90
18613;DHT22;9436;52.152;21.032;2022-07-21T06:10:15;23.60;99.90
18613;DHT22;9436;52.152;21.032;2022-07-21T06:12:43;23.70;99.90
18613;DHT22;9436;52.152;21.032;2022-07-21T06:15:11;23.70;99.90
18613;DHT22;9436;52.152;21.032;2022-07-21T06:17:39;23.70;99.90
18613;DHT22;9436;52.152;21.032;2022-07-21T06:20:08;23.80;99.90
18613;DHT22;9436;52.152;21.032;2022-07-21T06:22:36;23.90;99.90
18613;DHT22;9436;52.152;21.032;2022-07-21T06:25:03;23.90;99.90
18613;DHT22;9436;52.152;21.032;2022-07-21T06:27:32;24.00;99.90
18613;DHT22;9436;52.152;21.032;2022-07-21T06:29:59;24.00;99.90
18613;DHT22;9436;52.152;21.032;2022-07-21T06:32:26;24.10;99.90
18613;DHT22;9436;52.152;21.032;2022-07-21T06:34:53;24.10;99.90
18613;DHT22;9436;52.152;21.032;2022-07-21T06:37:20;24.20;99.90
18613;DHT22;9436;52.152;21.032;2022-07-21T06:39:48;24.20;99.90
18613;DHT22;9436;52.152;21.032;2022-07-21T06:42:15;24.40;99.90
18613;DHT22;9436;52.152;21.032;2022-07-21T06:44:44;24.40;99.90
18613;DHT22;9436;52.152;21.032;2022-07-21T06:47:11;24.60;99.90
18613;DHT22;9436;52.152;21.032;2022-07-21T06:49:38;24.60;99.90
18613;DHT22;9436;52.152;21.032;2022-07-21T06:52:05;24.70;99.90
18613;DHT22;9436;52.152;21.032;2022-07-21T06:54:32;24.80;99.90
18613;DHT22;9436;52.152;21.032;2022-07-21T06:56:59;24.70;99.90
18613;DHT22;9436;52.152;21.032;2022-07-21T06:59:26;24.80;99.90
18613;DHT22;9436;52.152;21.032;2022-07-21T07:01:54;24.80;99.90
18613;DHT22;9436;52.152;21.032;2022-07-21T07:04:22;24.90;99.90
18613;DHT22;9436;52.152;21.032;2022-07-21T07:06:49;24.90;99.90
18613;DHT22;9436;52.152;21.032;2022-07-21T07:09:18;25.00;99.90
18613;DHT22;9436;52.152;21.032;2022-07-21T07:11:45;25.00;99.90
18613;DHT22;9436;52.152;21.032;2022-07-21T07:14:13;25.00;99.90
18613;DHT22;9436;52.152;21.032;2022-07-21T07:16:41;25.10;99.90
18613;DHT22;9436;52.152;21.032;2022-07-21T07:19:10;25.10;99.90
18613;DHT22;9436;52.152;21.032;2022-07-21T07:21:37;25.20;99.90
18613;DHT22;9436;52.152;21.032;2022-07-21T07:24:04;25.20;99.90
18613;DHT22;9436;52.152;21.032;2022-07-21T07:26:31;25.30;99.90
18613;DHT22;9436;52.152;21.032;2022-07-21T07:28:58;25.30;99.90
18613;DHT22;9436;52.152;21.032;2022-07-21T07:31:25;25.40;99.90
18613;DHT22;9436;52.152;21.032;2022-07-21T07:33:52;25.50;99.90
18613;DHT22;9436;52.152;21.032;2022-07-21T07:36:23;25.50;99.90
18613;DHT22;9436;52.152;21.032;2022-07-21T07:38:51;25.60;99.90
18613;DHT22;9436;52.152;21.032;2022-07-21T07:41:18;25.70;99.90
18613;DHT22;9436;52.152;21.032;2022-07-21T07:43:47;25.70;99.90
18613;DHT22;9436;52.152;21.032;2022-07-21T07:46:14;25.80;99.90
18613;DHT22;9436;52.152;21.032;2022-07-21T07:48:41;25.70;99.90
18613;DHT22;9436;52.152;21.032;2022-07-21T07:51:08;25.80;99.90
18613;DHT22;9436;52.152;21.032;2022-07-21T07:53:37;25.80;99.90
18613;DHT22;9436;52.152;21.032;2022-07-21T07:56:05;25.80;99.90
18613;DHT22;9436;52.152;21.032;2022-07-21T07:58:32;25.90;99.90
18613;DHT22;9436;52.152;21.032;2022-07-21T08:00:59;26.00;99.90
18613;DHT22;9436;52.152;21.032;2022-07-21T08:03:26;26.10;99.90
18613;DHT22;9436;52.152;21.032;2022-07-21T08:05:55;26.10;99.90
18613;DHT22;9436;52.152;21.032;2022-07-21T08:08:25;26.20;99.90
18613;DHT22;9436;52.152;21.032;2022-07-21T08:10:53;26.20;99.90
18613;DHT22;9436;52.152;21.032;2022-07-21T08:13:20;26.20;99.90
18613;DHT22;9436;52.152;21.032;2022-07-21T08:15:48;26.40;99.90
18613;DHT22;9436;52.152;21.032;2022-07-21T08:18:16;26.30;99.90
18613;DHT22;9436;52.152;21.032;2022-07-21T08:20:44;26.50;99.90
18613;DHT22;9436;52.152;21.032;2022-07-21T08:23:12;26.60;99.90
18613;DHT22;9436;52.152;21.032;2022-07-21T08:25:40;26.60;99.90
18613;DHT22;9436;52.152;21.032;2022-07-21T08:28:09;26.60;99.90
18613;DHT22;9436;52.152;21.032;2022-07-21T08:30:36;26.60;99.90
18613;DHT22;9436;52.152;21.032;2022-07-21T08:33:04;26.60;99.90
18613;DHT22;9436;52.152;21.032;2022-07-21T08:35:31;26.70;99.90
18613;DHT22;9436;52.152;21.032;2022-07-21T08:38:01;26.70;99.90
18613;DHT22;9436;52.152;21.032;2022-07-21T08:40:31;26.70;99.90
18613;DHT22;9436;52.152;21.032;2022-07-21T08:43:00;26.70;99.90
18613;DHT22;9436;52.152;21.032;2022-07-21T08:45:28;26.80;99.90
18613;DHT22;9436;52.152;21.032;2022-07-21T08:47:57;26.80;99.90
18613;DHT22;9436;52.152;21.032;2022-07-21T08:50:26;26.80;99.90
18613;DHT22;9436;52.152;21.032;2022-07-21T08:52:53;26.80;99.90
18613;DHT22;9436;52.152;21.032;2022-07-21T08:55:20;26.80;99.70
18613;DHT22;9436;52.152;21.032;2022-07-21T08:57:47;26.90;99.10
18613;DHT22;9436;52.152;21.032;2022-07-21T09:00:14;26.90;99.50
18613;DHT22;9436;52.152;21.032;2022-07-21T09:02:43;27.00;99.40
18613;DHT22;9436;52.152;21.032;2022-07-21T09:05:10;27.00;99.60
18613;DHT22;9436;52.152;21.032;2022-07-21T09:07:48;27.20;99.70
18613;DHT22;9436;52.152;21.032;2022-07-21T09:10:15;27.30;99.30
18613;DHT22;9436;52.152;21.032;2022-07-21T09:12:52;27.40;99.00
18613;DHT22;9436;52.152;21.032;2022-07-21T09:15:20;27.40;98.70
18613;DHT22;9436;52.152;21.032;2022-07-21T09:18:07;27.50;99.00
18613;DHT22;9436;52.152;21.032;2022-07-21T09:20:35;27.70;99.00
18613;DHT22;9436;52.152;21.032;2022-07-21T09:23:04;27.70;98.50
18613;DHT22;9436;52.152;21.032;2022-07-21T09:25:37;27.80;98.30
18613;DHT22;9436;52.152;21.032;2022-07-21T09:28:09;27.80;98.50
18613;DHT22;9436;52.152;21.032;2022-07-21T09:30:58;27.70;98.20
18613;DHT22;9436;52.152;21.032;2022-07-21T09:33:29;27.70;97.80
18613;DHT22;9436;52.152;21.032;2022-07-21T09:36:01;27.70;97.40
18613;DHT22;9436;52.152;21.032;2022-07-21T09:38:30;27.80;97.30
18613;DHT22;9436;52.152;21.032;2022-07-21T09:41:11;27.90;97.20
18613;DHT22;9436;52.152;21.032;2022-07-21T09:43:40;28.00;97.30
18613;DHT22;9436;52.152;21.032;2022-07-21T09:46:13;28.10;97.30
18613;DHT22;9436;52.152;21.032;2022-07-21T09:48:44;28.10;96.10
18613;DHT22;9436;52.152;21.032;2022-07-21T09:51:26;27.90;96.20
18613;DHT22;9436;52.152;21.032;2022-07-21T09:53:56;27.90;97.00
18613;DHT22;9436;52.152;21.032;2022-07-21T09:56:25;28.00;97.30
18613;DHT22;9436;52.152;21.032;2022-07-21T09:58:53;28.10;97.30
18613;DHT22;9436;52.152;21.032;2022-07-21T10:01:22;28.10;96.50
18613;DHT22;9436;52.152;21.032;2022-07-21T10:03:51;28.20;96.60
18613;DHT22;9436;52.152;21.032;2022-07-21T10:06:20;28.20;95.60
18613;DHT22;9436;52.152;21.032;2022-07-21T10:08:49;28.30;95.90
18613;DHT22;9436;52.152;21.032;2022-07-21T10:11:16;28.30;96.50
18613;DHT22;9436;52.152;21.032;2022-07-21T10:13:44;28.40;94.70
18613;DHT22;9436;52.152;21.032;2022-07-21T10:16:11;28.40;95.10
18613;DHT22;9436;52.152;21.032;2022-07-21T10:18:46;28.50;96.10
18613;DHT22;9436;52.152;21.032;2022-07-21T10:21:35;28.50;95.30
18613;DHT22;9436;52.152;21.032;2022-07-21T10:24:03;28.50;95.80
18613;DHT22;9436;52.152;21.032;2022-07-21T10:26:31;28.60;95.40
18613;DHT22;9436;52.152;21.032;2022-07-21T10:28:59;28.60;95.90
18613;DHT22;9436;52.152;21.032;2022-07-21T10:31:27;28.60;95.50
18613;DHT22;9436;52.152;21.032;2022-07-21T10:33:59;28.60;95.80
18613;DHT22;9436;52.152;21.032;2022-07-21T10:36:43;28.60;95.60
18613;DHT22;9436;52.152;21.032;2022-07-21T10:39:24;28.80;95.50
18613;DHT22;9436;52.152;21.032;2022-07-21T10:41:53;29.00;95.70
18613;DHT22;9436;52.152;21.032;2022-07-21T10:44:40;29.10;95.50
18613;DHT22;9436;52.152;21.032;2022-07-21T10:47:09;29.20;94.90
18613;DHT22;9436;52.152;21.032;2022-07-21T10:49:45;29.20;94.70
18613;DHT22;9436;52.152;21.032;2022-07-21T10:55:35;29.10;94.80
18613;DHT22;9436;52.152;21.032;2022-07-21T10:58:14;29.20;95.40
18613;DHT22;9436;52.152;21.032;2022-07-21T11:00:49;29.00;95.50
18613;DHT22;9436;52.152;21.032;2022-07-21T11:03:23;29.10;95.60
18613;DHT22;9436;52.152;21.032;2022-07-21T11:06:20;29.30;96.20
18613;DHT22;9436;52.152;21.032;2022-07-21T11:08:52;29.40;95.30
18613;DHT22;9436;52.152;21.032;2022-07-21T11:11:22;29.40;95.40
18613;DHT22;9436;52.152;21.032;2022-07-21T11:14:07;29.50;95.60
18613;DHT22;9436;52.152;21.032;2022-07-21T11:16:58;29.70;94.80
18613;DHT22;9436;52.152;21.032;2022-07-21T11:19:34;29.80;95.20
18613;DHT22;9436;52.152;21.032;2022-07-21T11:22:03;29.90;94.40
18613;DHT22;9436;52.152;21.032;2022-07-21T11:24:31;29.90;94.30
18613;DHT22;9436;52.152;21.032;2022-07-21T11:27:02;30.00;93.90
18613;DHT22;9436;52.152;21.032;2022-07-21T11:29:30;30.00;94.20
18613;DHT22;9436;52.152;21.032;2022-07-21T11:31:58;30.20;94.50
18613;DHT22;9436;52.152;21.032;2022-07-21T11:34:37;30.20;94.10
18613;DHT22;9436;52.152;21.032;2022-07-21T11:37:04;30.20;93.80
18613;DHT22;9436;52.152;21.032;2022-07-21T11:39:31;30.30;94.10
18613;DHT22;9436;52.152;21.032;2022-07-21T11:42:03;30.40;94.30
18613;DHT22;9436;52.152;21.032;2022-07-21T11:44:31;30.40;94.50
18613;DHT22;9436;52.152;21.032;2022-07-21T11:47:00;30.40;94.60
18613;DHT22;9436;52.152;21.032;2022-07-21T11:49:28;30.50;93.60
18613;DHT22;9436;52.152;21.032;2022-07-21T11:51:58;30.50;94.10
18613;DHT22;9436;52.152;21.032;2022-07-21T11:54:28;30.30;93.40
18613;DHT22;9436;52.152;21.032;2022-07-21T11:56:57;30.40;94.30
18613;DHT22;9436;52.152;21.032;2022-07-21T11:59:26;30.50;94.10
18613;DHT22;9436;52.152;21.032;2022-07-21T12:02:01;30.60;94.40
18613;DHT22;9436;52.152;21.032;2022-07-21T12:04:41;30.50;93.80
18613;DHT22;9436;52.152;21.032;2022-07-21T12:07:18;30.50;94.60
18613;DHT22;9436;52.152;21.032;2022-07-21T12:09:48;30.70;94.30
18613;DHT22;9436;52.152;21.032;2022-07-21T12:12:30;30.80;93.80
18613;DHT22;9436;52.152;21.032;2022-07-21T12:15:11;30.90;93.90
18613;DHT22;9436;52.152;21.032;2022-07-21T12:17:40;30.90;93.60
18613;DHT22;9436;52.152;21.032;2022-07-21T12:20:09;31.10;94.30
18613;DHT22;9436;52.152;21.032;2022-07-21T12:22:40;31.20;94.00
18613;DHT22;9436;52.152;21.032;2022-07-21T12:25:11;31.30;93.70
18613;DHT22;9436;52.152;21.032;2022-07-21T12:27:42;31.40;94.10
18613;DHT22;9436;52.152;21.032;2022-07-21T12:30:31;31.50;93.80
18613;DHT22;9436;52.152;21.032;2022-07-21T12:33:04;31.50;93.40
18613;DHT22;9436;52.152;21.032;2022-07-21T12:35:32;31.50;93.70
18613;DHT22;9436;52.152;21.032;2022-07-21T12:38:03;31.40;93.00
18613;DHT22;9436;52.152;21.032;2022-07-21T12:40:32;31.50;93.10
18613;DHT22;9436;52.152;21.032;2022-07-21T12:43:04;31.60;93.10
18613;DHT22;9436;52.152;21.032;2022-07-21T12:48:27;31.70;92.70
18613;DHT22;9436;52.152;21.032;2022-07-21T12:51:09;31.80;92.90
18613;DHT22;9436;52.152;21.032;2022-07-21T12:53:42;31.60;92.60
18613;DHT22;9436;52.152;21.032;2022-07-21T12:56:14;31.60;93.30
18613;DHT22;9436;52.152;21.032;2022-07-21T12:58:42;31.70;93.10
18613;DHT22;9436;52.152;21.032;2022-07-21T13:01:13;31.60;93.00
18613;DHT22;9436;52.152;21.032;2022-07-21T13:03:40;31.70;93.30
18613;DHT22;9436;52.152;21.032;2022-07-21T13:06:08;31.90;93.70
18613;DHT22;9436;52.152;21.032;2022-07-21T13:08:37;32.00;93.90
18613;DHT22;9436;52.152;21.032;2022-07-21T13:11:06;32.20;93.50
18613;DHT22;9436;52.152;21.032;2022-07-21T13:13:34;32.30;93.60
18613;DHT22;9436;52.152;21.032;2022-07-21T13:16:03;32.50;93.40
18613;DHT22;9436;52.152;21.032;2022-07-21T13:18:32;32.60;92.80
18613;DHT22;9436;52.152;21.032;2022-07-21T13:21:01;32.60;92.70
18613;DHT22;9436;52.152;21.032;2022-07-21T13:23:30;32.70;92.80
18613;DHT22;9436;52.152;21.032;2022-07-21T13:25:57;32.70;92.30
18613;DHT22;9436;52.152;21.032;2022-07-21T13:28:24;32.70;92.50
18613;DHT22;9436;52.152;21.032;2022-07-21T13:30:52;32.70;92.80
18613;DHT22;9436;52.152;21.032;2022-07-21T13:33:19;32.80;93.00
18613;DHT22;9436;52.152;21.032;2022-07-21T13:35:48;32.70;92.30
18613;DHT22;9436;52.152;21.032;2022-07-21T13:38:16;32.70;92.60
18613;DHT22;9436;52.152;21.032;2022-07-21T13:40:42;32.90;92.10
18613;DHT22;9436;52.152;21.032;2022-07-21T13:43:10;32.80;92.00
18613;DHT22;9436;52.152;21.032;2022-07-21T13:45:41;32.70;92.00
18613;DHT22;9436;52.152;21.032;2022-07-21T13:48:08;32.70;92.50
18613;DHT22;9436;52.152;21.032;2022-07-21T13:50:35;32.70;92.40
18613;DHT22;9436;52.152;21.032;2022-07-21T13:53:05;32.90;92.50
18613;DHT22;9436;52.152;21.032;2022-07-21T13:55:33;33.00;92.20
18613;DHT22;9436;52.152;21.032;2022-07-21T13:58:00;32.90;91.70
18613;DHT22;9436;52.152;21.032;2022-07-21T14:00:28;33.00;92.10
18613;DHT22;9436;52.152;21.032;2022-07-21T14:02:56;33.00;92.00
18613;DHT22;9436;52.152;21.032;2022-07-21T14:05:24;33.00;92.30
18613;DHT22;9436;52.152;21.032;2022-07-21T14:07:51;33.10;92.70
18613;DHT22;9436;52.152;21.032;2022-07-21T14:10:20;33.10;92.10
18613;DHT22;9436;52.152;21.032;2022-07-21T14:12:48;33.00;91.50
18613;DHT22;9436;52.152;21.032;2022-07-21T14:15:16;33.00;92.20
18613;DHT22;9436;52.152;21.032;2022-07-21T14:17:43;33.10;92.10
18613;DHT22;9436;52.152;21.032;2022-07-21T14:20:11;33.30;91.90
18613;DHT22;9436;52.152;21.032;2022-07-21T14:22:39;33.30;91.70
18613;DHT22;9436;52.152;21.032;2022-07-21T14:25:08;33.40;91.70
18613;DHT22;9436;52.152;21.032;2022-07-21T14:27:46;33.40;91.40
18613;DHT22;9436;52.152;21.032;2022-07-21T14:30:14;33.30;91.80
18613;DHT22;9436;52.152;21.032;2022-07-21T14:32:41;33.40;91.80
18613;DHT22;9436;52.152;21.032;2022-07-21T14:35:09;33.40;91.60
18613;DHT22;9436;52.152;21.032;2022-07-21T14:37:37;33.30;91.30
18613;DHT22;9436;52.152;21.032;2022-07-21T14:40:06;33.40;91.80
18613;DHT22;9436;52.152;21.032;2022-07-21T14:42:36;33.40;91.70
18613;DHT22;9436;52.152;21.032;2022-07-21T14:45:06;33.40;91.40
18613;DHT22;9436;52.152;21.032;2022-07-21T14:47:35;33.30;91.70
18613;DHT22;9436;52.152;21.032;2022-07-21T14:50:03;33.10;91.70
18613;DHT22;9436;52.152;21.032;2022-07-21T14:52:31;33.00;91.70
18613;DHT22;9436;52.152;21.032;2022-07-21T14:54:59;32.90;91.30
18613;DHT22;9436;52.152;21.032;2022-07-21T14:57:27;32.80;91.80
18613;DHT22;9436;52.152;21.032;2022-07-21T14:59:55;32.80;91.90
18613;DHT22;9436;52.152;21.032;2022-07-21T15:02:25;32.90;91.40
18613;DHT22;9436;52.152;21.032;2022-07-21T15:04:55;32.90;91.20
18613;DHT22;9436;52.152;21.032;2022-07-21T15:07:22;32.90;90.90
18613;DHT22;9436;52.152;21.032;2022-07-21T15:09:53;32.90;91.40
18613;DHT22;9436;52.152;21.032;2022-07-21T15:12:21;32.90;91.50
18613;DHT22;9436;52.152;21.032;2022-07-21T15:14:50;32.90;90.70
18613;DHT22;9436;52.152;21.032;2022-07-21T15:17:18;32.90;90.80
18613;DHT22;9436;52.152;21.032;2022-07-21T15:19:48;32.80;91.10
18613;DHT22;9436;52.152;21.032;2022-07-21T15:22:17;32.70;90.90
18613;DHT22;9436;52.152;21.032;2022-07-21T15:24:44;32.70;91.10
18613;DHT22;9436;52.152;21.032;2022-07-21T15:27:12;32.70;91.30
18613;DHT22;9436;52.152;21.032;2022-07-21T15:29:39;32.60;91.30
18613;DHT22;9436;52.152;21.032;2022-07-21T15:32:06;32.60;90.50
18613;DHT22;9436;52.152;21.032;2022-07-21T15:34:34;32.50;90.50
18613;DHT22;9436;52.152;21.032;2022-07-21T15:37:03;32.40;91.60
18613;DHT22;9436;52.152;21.032;2022-07-21T15:39:31;32.30;91.10
18613;DHT22;9436;52.152;21.032;2022-07-21T15:42:01;32.20;91.50
18613;DHT22;9436;52.152;21.032;2022-07-21T15:44:29;32.10;91.10
18613;DHT22;9436;52.152;21.032;2022-07-21T15:46:57;32.00;91.90